sensor_id;sensor_type;location;lat;lon;timestamp;temperature;humidity
17774;DHT22;9011;33.236;-97.118;2023-05-19T00:02:10;27.60;99.90
17774;DHT22;9011;33.236;-97.118;2023-05-19T00:15:36;27.60;99.90
17774;DHT22;9011;33.236;-97.118;2023-05-19T00:25:50;27.50;99.90
17774;DHT22;9011;33.236;-97.118;2023-05-19T00:35:51;27.40;99.90
17774;DHT22;9011;33.236;-97.118;2023-05-19T00:39:03;27.40;99.90
17774;DHT22;9011;33.236;-97.118;2023-05-19T01:05:51;27.10;99.90
17774;DHT22;9011;33.236;-97.118;2023-05-19T01:08:43;27.10;99.90
17774;DHT22;9011;33.236;-97.118;2023-05-19T01:11:42;27.00;99.90
17774;DHT22;9011;33.236;-97.118;2023-05-19T01:14:48;27.00;99.90
17774;DHT22;9011;33.236;-97.118;2023-05-19T01:17:44;27.00;99.90
17774;DHT22;9011;33.236;-97.118;2023-05-19T01:24:11;26.90;99.90
17774;DHT22;9011;33.236;-97.118;2023-05-19T01:30:30;26.80;99.90
17774;DHT22;9011;33.236;-97.118;2023-05-19T01:33:14;26.80;99.90
17774;DHT22;9011;33.236;-97.118;2023-05-19T01:36:34;26.80;99.90
17774;DHT22;9011;33.236;-97.118;2023-05-19T01:39:32;26.70;99.90
17774;DHT22;9011;33.236;-97.118;2023-05-19T01:42:43;26.60;99.90
17774;DHT22;9011;33.236;-97.118;2023-05-19T01:45:19;26.60;99.90
17774;DHT22;9011;33.236;-97.118;2023-05-19T01:48:33;26.60;99.90
17774;DHT22;9011;33.236;-97.118;2023-05-19T02:15:19;26.40;99.90
17774;DHT22;9011;33.236;-97.118;2023-05-19T02:18:24;26.30;99.90
17774;DHT22;9011;33.236;-97.118;2023-05-19T02:21:25;26.30;99.90
17774;DHT22;9011;33.236;-97.118;2023-05-19T02:24:28;26.30;99.90
17774;DHT22;9011;33.236;-97.118;2023-05-19T02:26:59;26.30;99.90
17774;DHT22;9011;33.236;-97.118;2023-05-19T02:29:59;26.20;99.90
17774;DHT22;9011;33.236;-97.118;2023-05-19T02:36:09;26.20;99.90
17774;DHT22;9011;33.236;-97.118;2023-05-19T02:39:32;26.10;99.90
17774;DHT22;9011;33.236;-97.118;2023-05-19T02:46:01;26.10;99.90
17774;DHT22;9011;33.236;-97.118;2023-05-19T02:48:42;26.10;99.90
17774;DHT22;9011;33.236;-97.118;2023-05-19T02:54:56;26.00;99.90
17774;DHT22;9011;33.236;-97.118;2023-05-19T02:57:38;26.00;99.90
17774;DHT22;9011;33.236;-97.118;2023-05-19T03:03:47;25.90;99.90
17774;DHT22;9011;33.236;-97.118;2023-05-19T03:06:33;25.90;99.90
17774;DHT22;9011;33.236;-97.118;2023-05-19T03:09:06;25.90;99.90
17774;DHT22;9011;33.236;-97.118;2023-05-19T03:11:38;25.80;99.90
17774;DHT22;9011;33.236;-97.118;2023-05-19T03:14:25;25.90;99.90
17774;DHT22;9011;33.236;-97.118;2023-05-19T03:17:10;25.90;99.90
17774;DHT22;9011;33.236;-97.118;2023-05-19T03:19:55;25.90;99.90
17774;DHT22;9011;33.236;-97.118;2023-05-19T03:22:33;25.90;99.90
17774;DHT22;9011;33.236;-97.118;2023-05-19T03:25:17;25.80;99.90
17774;DHT22;9011;33.236;-97.118;2023-05-19T03:28:18;25.90;99.90
17774;DHT22;9011;33.236;-97.118;2023-05-19T03:30:46;25.90;99.90
17774;DHT22;9011;33.236;-97.118;2023-05-19T03:33:28;25.90;99.90
17774;DHT22;9011;33.236;-97.118;2023-05-19T03:38:42;25.90;99.90
17774;DHT22;9011;33.236;-97.118;2023-05-19T03:41:31;25.80;99.90
17774;DHT22;9011;33.236;-97.118;2023-05-19T03:44:23;25.90;99.90
17774;DHT22;9011;33.236;-97.118;2023-05-19T03:46:52;25.80;99.90
17774;DHT22;9011;33.236;-97.118;2023-05-19T03:49:34;25.70;99.90
17774;DHT22;9011;33.236;-97.118;2023-05-19T03:52:18;25.70;99.90
17774;DHT22;9011;33.236;-97.118;2023-05-19T03:55:19;25.70;99.90
17774;DHT22;9011;33.236;-97.118;2023-05-19T03:58:09;25.70;99.90
17774;DHT22;9011;33.236;-97.118;2023-05-19T04:00:50;25.60;99.90
17774;DHT22;9011;33.236;-97.118;2023-05-19T04:03:29;25.60;99.90
17774;DHT22;9011;33.236;-97.118;2023-05-19T04:05:58;25.60;99.90
17774;DHT22;9011;33.236;-97.118;2023-05-19T04:09:02;25.60;99.90
17774;DHT22;9011;33.236;-97.118;2023-05-19T04:11:41;25.50;99.90
17774;DHT22;9011;33.236;-97.118;2023-05-19T04:14:10;25.50;99.90
17774;DHT22;9011;33.236;-97.118;2023-05-19T04:17:09;25.50;99.90
17774;DHT22;9011;33.236;-97.118;2023-05-19T04:19:54;25.50;99.90
17774;DHT22;9011;33.236;-97.118;2023-05-19T04:25:24;25.40;99.90
17774;DHT22;9011;33.236;-97.118;2023-05-19T04:28:18;25.40;99.90
17774;DHT22;9011;33.236;-97.118;2023-05-19T04:30:56;25.40;99.90
17774;DHT22;9011;33.236;-97.118;2023-05-19T04:33:39;25.40;99.90
17774;DHT22;9011;33.236;-97.118;2023-05-19T04:36:38;25.40;99.90
17774;DHT22;9011;33.236;-97.118;2023-05-19T04:39:20;25.40;99.90
17774;DHT22;9011;33.236;-97.118;2023-05-19T04:41:51;25.30;99.90
17774;DHT22;9011;33.236;-97.118;2023-05-19T04:44:33;25.30;99.90
17774;DHT22;9011;33.236;-97.118;2023-05-19T04:47:32;25.20;99.90
17774;DHT22;9011;33.236;-97.118;2023-05-19T04:50:04;25.20;99.90
17774;DHT22;9011;33.236;-97.118;2023-05-19T04:52:44;25.20;99.90
17774;DHT22;9011;33.236;-97.118;2023-05-19T04:55:25;25.20;99.90
17774;DHT22;9011;33.236;-97.118;2023-05-19T04:57:55;25.20;99.90
17774;DHT22;9011;33.236;-97.118;2023-05-19T05:00:31;25.10;99.90
17774;DHT22;9011;33.236;-97.118;2023-05-19T05:03:01;25.10;99.90
17774;DHT22;9011;33.236;-97.118;2023-05-19T05:05:43;25.10;99.90
17774;DHT22;9011;33.236;-97.118;2023-05-19T05:08:30;25.00;99.90
17774;DHT22;9011;33.236;-97.118;2023-05-19T05:11:26;25.00;99.90
17774;DHT22;9011;33.236;-97.118;2023-05-19T05:15:33;24.90;99.90
17774;DHT22;9011;33.236;-97.118;2023-05-19T05:16:58;24.90;99.90
17774;DHT22;9011;33.236;-97.118;2023-05-19T05:22:47;24.90;99.90
17774;DHT22;9011;33.236;-97.118;2023-05-19T05:25:17;24.90;99.90
17774;DHT22;9011;33.236;-97.118;2023-05-19T05:27:52;24.90;99.90
17774;DHT22;9011;33.236;-97.118;2023-05-19T05:30:22;24.90;99.90
17774;DHT22;9011;33.236;-97.118;2023-05-19T05:33:03;24.80;99.90
17774;DHT22;9011;33.236;-97.118;2023-05-19T05:36:03;24.70;99.90
17774;DHT22;9011;33.236;-97.118;2023-05-19T05:38:47;24.70;99.90
17774;DHT22;9011;33.236;-97.118;2023-05-19T05:41:33;24.70;99.90
17774;DHT22;9011;33.236;-97.118;2023-05-19T05:44:14;24.60;99.90
17774;DHT22;9011;33.236;-97.118;2023-05-19T05:46:57;24.50;99.90
17774;DHT22;9011;33.236;-97.118;2023-05-19T05:49:44;24.60;99.90
17774;DHT22;9011;33.236;-97.118;2023-05-19T06:01:06;24.50;99.90
17774;DHT22;9011;33.236;-97.118;2023-05-19T06:03:46;24.50;99.90
17774;DHT22;9011;33.236;-97.118;2023-05-19T06:06:28;24.40;99.90
17774;DHT22;9011;33.236;-97.118;2023-05-19T06:09:29;24.30;99.90
17774;DHT22;9011;33.236;-97.118;2023-05-19T06:12:18;24.30;99.90
17774;DHT22;9011;33.236;-97.118;2023-05-19T06:15:20;24.40;99.90
17774;DHT22;9011;33.236;-97.118;2023-05-19T06:18:02;24.30;99.90
17774;DHT22;9011;33.236;-97.118;2023-05-19T06:20:46;24.30;99.90
17774;DHT22;9011;33.236;-97.118;2023-05-19T06:23:15;24.30;99.90
17774;DHT22;9011;33.236;-97.118;2023-05-19T06:25:55;24.30;99.90
17774;DHT22;9011;33.236;-97.118;2023-05-19T06:28:26;24.30;99.90
17774;DHT22;9011;33.236;-97.118;2023-05-19T06:31:04;24.30;99.90
17774;DHT22;9011;33.236;-97.118;2023-05-19T06:33:51;24.30;99.90
17774;DHT22;9011;33.236;-97.118;2023-05-19T06:39:56;24.10;99.90
17774;DHT22;9011;33.236;-97.118;2023-05-19T06:42:42;24.00;99.90
17774;DHT22;9011;33.236;-97.118;2023-05-19T06:45:23;23.90;99.90
17774;DHT22;9011;33.236;-97.118;2023-05-19T06:48:09;23.90;99.90
17774;DHT22;9011;33.236;-97.118;2023-05-19T06:50:50;24.00;99.90
17774;DHT22;9011;33.236;-97.118;2023-05-19T06:53:21;24.00;99.90
17774;DHT22;9011;33.236;-97.118;2023-05-19T06:56:02;24.00;99.90
17774;DHT22;9011;33.236;-97.118;2023-05-19T07:01:50;23.90;99.90
17774;DHT22;9011;33.236;-97.118;2023-05-19T07:04:28;23.90;99.90
17774;DHT22;9011;33.236;-97.118;2023-05-19T07:06:56;23.90;99.90
17774;DHT22;9011;33.236;-97.118;2023-05-19T07:09:54;23.70;99.90
17774;DHT22;9011;33.236;-97.118;2023-05-19T07:12:23;23.60;99.90
17774;DHT22;9011;33.236;-97.118;2023-05-19T07:14:52;23.50;99.90
17774;DHT22;9011;33.236;-97.118;2023-05-19T07:17:27;23.50;99.90
17774;DHT22;9011;33.236;-97.118;2023-05-19T07:19:56;23.60;99.90
17774;DHT22;9011;33.236;-97.118;2023-05-19T07:22:37;23.50;99.90
17774;DHT22;9011;33.236;-97.118;2023-05-19T07:25:12;23.50;99.90
17774;DHT22;9011;33.236;-97.118;2023-05-19T07:27:43;23.50;99.90
17774;DHT22;9011;33.236;-97.118;2023-05-19T07:30:14;23.50;99.90
17774;DHT22;9011;33.236;-97.118;2023-05-19T07:32:51;23.50;99.90
17774;DHT22;9011;33.236;-97.118;2023-05-19T07:35:20;23.50;99.90
17774;DHT22;9011;33.236;-97.118;2023-05-19T07:37:58;23.40;99.90
17774;DHT22;9011;33.236;-97.118;2023-05-19T07:43:30;23.50;99.90
17774;DHT22;9011;33.236;-97.118;2023-05-19T07:46:10;23.50;99.90
17774;DHT22;9011;33.236;-97.118;2023-05-19T07:48:52;23.40;99.90
17774;DHT22;9011;33.236;-97.118;2023-05-19T07:51:21;23.30;99.90
17774;DHT22;9011;33.236;-97.118;2023-05-19T07:54:03;23.30;99.90
17774;DHT22;9011;33.236;-97.118;2023-05-19T07:56:43;23.30;99.90
17774;DHT22;9011;33.236;-97.118;2023-05-19T07:59:13;23.30;99.90
17774;DHT22;9011;33.236;-97.118;2023-05-19T08:01:55;23.20;99.90
17774;DHT22;9011;33.236;-97.118;2023-05-19T08:04:54;23.20;99.90
17774;DHT22;9011;33.236;-97.118;2023-05-19T08:07:23;23.20;99.90
17774;DHT22;9011;33.236;-97.118;2023-05-19T08:10:02;23.10;99.90
17774;DHT22;9011;33.236;-97.118;2023-05-19T08:12:32;23.00;99.90
17774;DHT22;9011;33.236;-97.118;2023-05-19T08:15:14;23.00;99.90
17774;DHT22;9011;33.236;-97.118;2023-05-19T08:17:57;23.10;99.90
17774;DHT22;9011;33.236;-97.118;2023-05-19T08:20:38;23.10;99.90
17774;DHT22;9011;33.236;-97.118;2023-05-19T08:23:06;23.10;99.90
17774;DHT22;9011;33.236;-97.118;2023-05-19T08:25:48;23.10;99.90
17774;DHT22;9011;33.236;-97.118;2023-05-19T08:28:32;23.10;99.90
17774;DHT22;9011;33.236;-97.118;2023-05-19T08:31:03;23.10;99.90
17774;DHT22;9011;33.236;-97.118;2023-05-19T08:33:56;23.10;99.90
17774;DHT22;9011;33.236;-97.118;2023-05-19T08:36:25;23.10;99.90
17774;DHT22;9011;33.236;-97.118;2023-05-19T08:39:05;23.10;99.90
17774;DHT22;9011;33.236;-97.118;2023-05-19T08:41:33;23.00;99.90
17774;DHT22;9011;33.236;-97.118;2023-05-19T08:44:14;23.00;99.90
17774;DHT22;9011;33.236;-97.118;2023-05-19T08:47:03;23.00;99.90
17774;DHT22;9011;33.236;-97.118;2023-05-19T08:49:44;23.00;99.90
17774;DHT22;9011;33.236;-97.118;2023-05-19T08:52:31;23.00;99.90
17774;DHT22;9011;33.236;-97.118;2023-05-19T08:55:26;23.00;99.90
17774;DHT22;9011;33.236;-97.118;2023-05-19T08:57:56;22.90;99.90
17774;DHT22;9011;33.236;-97.118;2023-05-19T09:00:56;22.90;99.90
17774;DHT22;9011;33.236;-97.118;2023-05-19T09:03:33;22.90;99.90
17774;DHT22;9011;33.236;-97.118;2023-05-19T09:06:06;22.90;99.90
17774;DHT22;9011;33.236;-97.118;2023-05-19T09:08:40;22.80;99.90
17774;DHT22;9011;33.236;-97.118;2023-05-19T09:11:12;22.80;99.90
17774;DHT22;9011;33.236;-97.118;2023-05-19T09:13:50;22.80;99.90
17774;DHT22;9011;33.236;-97.118;2023-05-19T09:16:21;22.60;99.90
17774;DHT22;9011;33.236;-97.118;2023-05-19T09:18:59;22.70;99.90
17774;DHT22;9011;33.236;-97.118;2023-05-19T09:21:28;22.60;99.90
17774;DHT22;9011;33.236;-97.118;2023-05-19T09:24:14;22.60;99.90
17774;DHT22;9011;33.236;-97.118;2023-05-19T09:26:52;22.70;99.90
17774;DHT22;9011;33.236;-97.118;2023-05-19T09:29:22;22.70;99.90
17774;DHT22;9011;33.236;-97.118;2023-05-19T09:31:54;22.80;99.90
17774;DHT22;9011;33.236;-97.118;2023-05-19T09:34:29;22.80;99.90
17774;DHT22;9011;33.236;-97.118;2023-05-19T09:37:07;22.90;99.90
17774;DHT22;9011;33.236;-97.118;2023-05-19T09:39:36;22.90;99.90
17774;DHT22;9011;33.236;-97.118;2023-05-19T09:42:14;23.00;99.90
17774;DHT22;9011;33.236;-97.118;2023-05-19T09:44:43;23.00;99.90
17774;DHT22;9011;33.236;-97.118;2023-05-19T09:47:19;23.00;99.90
17774;DHT22;9011;33.236;-97.118;2023-05-19T09:49:48;23.00;99.90
17774;DHT22;9011;33.236;-97.118;2023-05-19T09:52:17;23.00;99.90
17774;DHT22;9011;33.236;-97.118;2023-05-19T09:54:50;23.10;99.90
17774;DHT22;9011;33.236;-97.118;2023-05-19T09:57:25;23.00;99.90
17774;DHT22;9011;33.236;-97.118;2023-05-19T10:00:27;23.00;99.90
17774;DHT22;9011;33.236;-97.118;2023-05-19T10:03:09;23.00;99.90
17774;DHT22;9011;33.236;-97.118;2023-05-19T10:05:46;23.00;99.90
17774;DHT22;9011;33.236;-97.118;2023-05-19T10:08:16;23.00;99.90
17774;DHT22;9011;33.236;-97.118;2023-05-19T10:10:52;23.10;99.90
17774;DHT22;9011;33.236;-97.118;2023-05-19T10:13:22;23.10;99.90
17774;DHT22;9011;33.236;-97.118;2023-05-19T10:15:55;23.00;99.90
17774;DHT22;9011;33.236;-97.118;2023-05-19T10:18:31;23.00;99.90
17774;DHT22;9011;33.236;-97.118;2023-05-19T10:21:10;23.10;99.90
17774;DHT22;9011;33.236;-97.118;2023-05-19T10:23:39;23.10;99.90
17774;DHT22;9011;33.236;-97.118;2023-05-19T10:26:25;23.10;99.90
17774;DHT22;9011;33.236;-97.118;2023-05-19T10:29:18;23.10;99.90
17774;DHT22;9011;33.236;-97.118;2023-05-19T10:31:50;23.10;99.90
17774;DHT22;9011;33.236;-97.118;2023-05-19T10:34:46;23.10;99.90
17774;DHT22;9011;33.236;-97.118;2023-05-19T10:37:33;23.10;99.90
17774;DHT22;9011;33.236;-97.118;2023-05-19T10:40:17;23.10;99.90
17774;DHT22;9011;33.236;-97.118;2023-05-19T10:43:03;23.20;99.90
17774;DHT22;9011;33.236;-97.118;2023-05-19T10:45:40;23.20;99.90
17774;DHT22;9011;33.236;-97.118;2023-05-19T10:48:13;23.20;99.90
17774;DHT22;9011;33.236;-97.118;2023-05-19T10:51:01;23.20;99.90
17774;DHT22;9011;33.236;-97.118;2023-05-19T10:53:34;23.20;99.90
17774;DHT22;9011;33.236;-97.118;2023-05-19T10:56:03;23.20;99.90
17774;DHT22;9011;33.236;-97.118;2023-05-19T10:58:50;23.20;99.90
17774;DHT22;9011;33.236;-97.118;2023-05-19T11:04:38;23.20;99.90
17774;DHT22;9011;33.236;-97.118;2023-05-19T11:07:16;23.20;99.90
17774;DHT22;9011;33.236;-97.118;2023-05-19T11:09:49;23.20;99.90
17774;DHT22;9011;33.236;-97.118;2023-05-19T11:12:25;23.30;99.90
17774;DHT22;9011;33.236;-97.118;2023-05-19T11:14:54;23.20;99.90
17774;DHT22;9011;33.236;-97.118;2023-05-19T11:17:25;23.30;99.90
17774;DHT22;9011;33.236;-97.118;2023-05-19T11:19:57;23.30;99.90
17774;DHT22;9011;33.236;-97.118;2023-05-19T11:22:30;23.30;99.90
17774;DHT22;9011;33.236;-97.118;2023-05-19T11:25:01;23.30;99.90
17774;DHT22;9011;33.236;-97.118;2023-05-19T11:27:31;23.30;99.90
17774;DHT22;9011;33.236;-97.118;2023-05-19T11:30:10;23.30;99.90
17774;DHT22;9011;33.236;-97.118;2023-05-19T11:32:40;23.30;99.90
17774;DHT22;9011;33.236;-97.118;2023-05-19T11:35:14;23.30;99.90
17774;DHT22;9011;33.236;-97.118;2023-05-19T11:37:46;23.30;99.90
17774;DHT22;9011;33.236;-97.118;2023-05-19T11:40:46;23.30;99.90
17774;DHT22;9011;33.236;-97.118;2023-05-19T11:43:27;23.30;99.90
17774;DHT22;9011;33.236;-97.118;2023-05-19T11:45:56;23.30;99.90
17774;DHT22;9011;33.236;-97.118;2023-05-19T11:48:25;23.20;99.90
17774;DHT22;9011;33.236;-97.118;2023-05-19T11:51:06;23.20;99.90
17774;DHT22;9011;33.236;-97.118;2023-05-19T11:53:37;23.20;99.90
17774;DHT22;9011;33.236;-97.118;2023-05-19T11:56:38;23.30;99.90
17774;DHT22;9011;33.236;-97.118;2023-05-19T11:59:32;23.30;99.90
17774;DHT22;9011;33.236;-97.118;2023-05-19T12:02:02;23.30;99.90
17774;DHT22;9011;33.236;-97.118;2023-05-19T12:04:30;23.30;99.90
17774;DHT22;9011;33.236;-97.118;2023-05-19T12:07:04;23.30;99.90
17774;DHT22;9011;33.236;-97.118;2023-05-19T12:09:37;23.30;99.90
17774;DHT22;9011;33.236;-97.118;2023-05-19T12:12:07;23.30;99.90
17774;DHT22;9011;33.236;-97.118;2023-05-19T12:14:37;23.30;99.90
17774;DHT22;9011;33.236;-97.118;2023-05-19T12:17:12;23.40;99.90
17774;DHT22;9011;33.236;-97.118;2023-05-19T12:19:43;23.40;99.90
17774;DHT22;9011;33.236;-97.118;2023-05-19T12:22:14;23.40;99.90
17774;DHT22;9011;33.236;-97.118;2023-05-19T12:24:49;23.40;99.90
17774;DHT22;9011;33.236;-97.118;2023-05-19T12:27:19;23.40;99.90
17774;DHT22;9011;33.236;-97.118;2023-05-19T12:29:49;23.40;99.90
17774;DHT22;9011;33.236;-97.118;2023-05-19T12:32:21;23.50;99.90
17774;DHT22;9011;33.236;-97.118;2023-05-19T12:34:51;23.50;99.90
17774;DHT22;9011;33.236;-97.118;2023-05-19T12:37:20;23.50;99.90
17774;DHT22;9011;33.236;-97.118;2023-05-19T12:39:53;23.50;99.90
17774;DHT22;9011;33.236;-97.118;2023-05-19T12:42:24;23.50;99.90
17774;DHT22;9011;33.236;-97.118;2023-05-19T12:44:57;23.60;99.90
17774;DHT22;9011;33.236;-97.118;2023-05-19T12:47:32;23.50;99.90
17774;DHT22;9011;33.236;-97.118;2023-05-19T12:50:02;23.60;99.90
17774;DHT22;9011;33.236;-97.118;2023-05-19T12:52:41;23.60;99.90
17774;DHT22;9011;33.236;-97.118;2023-05-19T12:55:12;23.60;99.90
17774;DHT22;9011;33.236;-97.118;2023-05-19T12:57:43;23.60;99.90
17774;DHT22;9011;33.236;-97.118;2023-05-19T13:00:17;23.60;99.90
17774;DHT22;9011;33.236;-97.118;2023-05-19T13:03:04;23.60;99.90
17774;DHT22;9011;33.236;-97.118;2023-05-19T13:05:34;23.60;99.90
17774;DHT22;9011;33.236;-97.118;2023-05-19T13:08:05;23.70;99.90
17774;DHT22;9011;33.236;-97.118;2023-05-19T13:10:38;23.70;99.90
17774;DHT22;9011;33.236;-97.118;2023-05-19T13:13:08;23.70;99.90
17774;DHT22;9011;33.236;-97.118;2023-05-19T13:15:38;23.80;99.90
17774;DHT22;9011;33.236;-97.118;2023-05-19T13:18:14;23.80;99.90
17774;DHT22;9011;33.236;-97.118;2023-05-19T13:20:44;23.90;99.90
17774;DHT22;9011;33.236;-97.118;2023-05-19T13:23:14;23.90;99.90
17774;DHT22;9011;33.236;-97.118;2023-05-19T13:25:45;23.90;99.90
17774;DHT22;9011;33.236;-97.118;2023-05-19T13:28:14;23.90;99.90
17774;DHT22;9011;33.236;-97.118;2023-05-19T13:30:43;24.00;99.90
17774;DHT22;9011;33.236;-97.118;2023-05-19T13:33:12;24.00;99.90
17774;DHT22;9011;33.236;-97.118;2023-05-19T13:35:41;24.10;99.90
17774;DHT22;9011;33.236;-97.118;2023-05-19T13:38:10;24.10;99.90
17774;DHT22;9011;33.236;-97.118;2023-05-19T13:40:40;24.10;99.90
17774;DHT22;9011;33.236;-97.118;2023-05-19T13:43:13;24.10;99.90
17774;DHT22;9011;33.236;-97.118;2023-05-19T13:45:41;24.20;99.90
17774;DHT22;9011;33.236;-97.118;2023-05-19T13:48:10;24.20;99.90
17774;DHT22;9011;33.236;-97.118;2023-05-19T13:50:42;24.30;99.90
17774;DHT22;9011;33.236;-97.118;2023-05-19T13:53:11;24.40;99.90
17774;DHT22;9011;33.236;-97.118;2023-05-19T13:55:43;24.50;99.90
17774;DHT22;9011;33.236;-97.118;2023-05-19T13:58:16;24.60;99.90
17774;DHT22;9011;33.236;-97.118;2023-05-19T14:00:45;24.80;99.90
17774;DHT22;9011;33.236;-97.118;2023-05-19T14:03:15;24.90;99.90
17774;DHT22;9011;33.236;-97.118;2023-05-19T14:05:47;25.00;99.90
17774;DHT22;9011;33.236;-97.118;2023-05-19T14:08:16;25.10;99.90
17774;DHT22;9011;33.236;-97.118;2023-05-19T14:10:45;25.30;99.90
17774;DHT22;9011;33.236;-97.118;2023-05-19T14:13:16;25.30;99.90
17774;DHT22;9011;33.236;-97.118;2023-05-19T14:15:44;25.50;99.90
17774;DHT22;9011;33.236;-97.118;2023-05-19T14:18:14;25.60;99.90
17774;DHT22;9011;33.236;-97.118;2023-05-19T14:20:43;25.70;99.90
17774;DHT22;9011;33.236;-97.118;2023-05-19T14:23:12;25.80;99.90
17774;DHT22;9011;33.236;-97.118;2023-05-19T14:25:42;26.00;99.90
17774;DHT22;9011;33.236;-97.118;2023-05-19T14:28:11;26.10;99.90
17774;DHT22;9011;33.236;-97.118;2023-05-19T14:30:41;26.20;99.90
17774;DHT22;9011;33.236;-97.118;2023-05-19T14:33:10;26.30;99.90
17774;DHT22;9011;33.236;-97.118;2023-05-19T14:35:39;26.50;99.90
17774;DHT22;9011;33.236;-97.118;2023-05-19T14:38:07;26.50;99.90
17774;DHT22;9011;33.236;-97.118;2023-05-19T14:40:36;26.60;99.90
17774;DHT22;9011;33.236;-97.118;2023-05-19T14:43:08;26.80;99.90
17774;DHT22;9011;33.236;-97.118;2023-05-19T14:45:38;26.90;99.90
17774;DHT22;9011;33.236;-97.118;2023-05-19T14:48:12;27.00;99.90
17774;DHT22;9011;33.236;-97.118;2023-05-19T14:50:44;27.10;99.90
17774;DHT22;9011;33.236;-97.118;2023-05-19T14:53:16;27.20;99.90
17774;DHT22;9011;33.236;-97.118;2023-05-19T14:55:47;27.30;99.90
17774;DHT22;9011;33.236;-97.118;2023-05-19T14:58:18;27.50;99.90
17774;DHT22;9011;33.236;-97.118;2023-05-19T15:00:47;27.60;99.90
17774;DHT22;9011;33.236;-97.118;2023-05-19T15:03:17;27.70;99.90
17774;DHT22;9011;33.236;-97.118;2023-05-19T15:05:48;27.80;99.90
17774;DHT22;9011;33.236;-97.118;2023-05-19T15:08:17;27.90;99.90
17774;DHT22;9011;33.236;-97.118;2023-05-19T15:10:49;28.00;99.90
17774;DHT22;9011;33.236;-97.118;2023-05-19T15:13:17;28.20;99.90
17774;DHT22;9011;33.236;-97.118;2023-05-19T15:15:52;28.20;99.90
17774;DHT22;9011;33.236;-97.118;2023-05-19T15:18:22;28.30;99.90
17774;DHT22;9011;33.236;-97.118;2023-05-19T15:20:51;28.30;99.90
17774;DHT22;9011;33.236;-97.118;2023-05-19T15:23:20;28.30;99.90
17774;DHT22;9011;33.236;-97.118;2023-05-19T15:25:49;28.50;99.90
17774;DHT22;9011;33.236;-97.118;2023-05-19T15:28:19;28.60;99.90
17774;DHT22;9011;33.236;-97.118;2023-05-19T15:30:50;28.70;99.90
17774;DHT22;9011;33.236;-97.118;2023-05-19T15:33:19;28.80;99.90
17774;DHT22;9011;33.236;-97.118;2023-05-19T15:35:53;28.80;99.90
17774;DHT22;9011;33.236;-97.118;2023-05-19T15:38:25;29.00;99.90
17774;DHT22;9011;33.236;-97.118;2023-05-19T15:40:53;29.00;99.90
17774;DHT22;9011;33.236;-97.118;2023-05-19T15:43:22;28.90;99.90
17774;DHT22;9011;33.236;-97.118;2023-05-19T15:45:53;29.00;99.90
17774;DHT22;9011;33.236;-97.118;2023-05-19T15:48:22;29.00;99.90
17774;DHT22;9011;33.236;-97.118;2023-05-19T15:50:55;29.20;99.90
17774;DHT22;9011;33.236;-97.118;2023-05-19T15:53:24;29.20;99.90
17774;DHT22;9011;33.236;-97.118;2023-05-19T15:55:55;29.30;99.90
17774;DHT22;9011;33.236;-97.118;2023-05-19T15:58:25;29.40;99.90
17774;DHT22;9011;33.236;-97.118;2023-05-19T16:00:54;29.60;99.90
17774;DHT22;9011;33.236;-97.118;2023-05-19T16:03:23;29.70;99.90
17774;DHT22;9011;33.236;-97.118;2023-05-19T16:05:54;29.80;99.90
17774;DHT22;9011;33.236;-97.118;2023-05-19T16:08:23;29.70;99.90
17774;DHT22;9011;33.236;-97.118;2023-05-19T16:10:52;29.90;99.90
17774;DHT22;9011;33.236;-97.118;2023-05-19T16:13:21;30.00;99.90
17774;DHT22;9011;33.236;-97.118;2023-05-19T16:15:55;30.10;99.90
17774;DHT22;9011;33.236;-97.118;2023-05-19T16:18:29;30.10;99.90
17774;DHT22;9011;33.236;-97.118;2023-05-19T16:20:59;30.30;99.90
17774;DHT22;9011;33.236;-97.118;2023-05-19T16:23:28;30.30;99.90
17774;DHT22;9011;33.236;-97.118;2023-05-19T16:25:57;30.40;99.90
17774;DHT22;9011;33.236;-97.118;2023-05-19T16:28:25;30.40;99.90
17774;DHT22;9011;33.236;-97.118;2023-05-19T16:30:58;30.60;99.90
17774;DHT22;9011;33.236;-97.118;2023-05-19T16:33:27;30.70;99.90
17774;DHT22;9011;33.236;-97.118;2023-05-19T16:35:59;30.80;99.90
17774;DHT22;9011;33.236;-97.118;2023-05-19T16:38:27;30.70;99.90
17774;DHT22;9011;33.236;-97.118;2023-05-19T16:40:56;30.70;99.90
17774;DHT22;9011;33.236;-97.118;2023-05-19T16:43:24;30.60;99.90
17774;DHT22;9011;33.236;-97.118;2023-05-19T16:45:54;30.60;99.90
17774;DHT22;9011;33.236;-97.118;2023-05-19T16:48:23;30.60;99.90
17774;DHT22;9011;33.236;-97.118;2023-05-19T16:50:51;30.60;99.90
17774;DHT22;9011;33.236;-97.118;2023-05-19T16:53:22;30.60;99.90
17774;DHT22;9011;33.236;-97.118;2023-05-19T16:55:51;30.60;99.90
17774;DHT22;9011;33.236;-97.118;2023-05-19T16:58:21;30.70;99.90
17774;DHT22;9011;33.236;-97.118;2023-05-19T17:00:53;30.80;99.90
17774;DHT22;9011;33.236;-97.118;2023-05-19T17:03:23;30.80;99.90
17774;DHT22;9011;33.236;-97.118;2023-05-19T17:05:52;30.90;99.90
17774;DHT22;9011;33.236;-97.118;2023-05-19T17:08:22;31.00;99.90
17774;DHT22;9011;33.236;-97.118;2023-05-19T17:10:52;31.00;99.90
17774;DHT22;9011;33.236;-97.118;2023-05-19T17:13:28;31.10;99.90
17774;DHT22;9011;33.236;-97.118;2023-05-19T17:16:07;31.20;99.90
17774;DHT22;9011;33.236;-97.118;2023-05-19T17:18:36;31.20;99.90
17774;DHT22;9011;33.236;-97.118;2023-05-19T17:21:07;31.30;99.90
17774;DHT22;9011;33.236;-97.118;2023-05-19T17:24:01;31.40;99.90
17774;DHT22;9011;33.236;-97.118;2023-05-19T17:26:30;31.40;99.90
17774;DHT22;9011;33.236;-97.118;2023-05-19T17:28:59;31.40;99.90
17774;DHT22;9011;33.236;-97.118;2023-05-19T17:31:34;31.40;99.90
17774;DHT22;9011;33.236;-97.118;2023-05-19T17:34:02;31.50;99.90
17774;DHT22;9011;33.236;-97.118;2023-05-19T17:36:31;31.60;99.90
17774;DHT22;9011;33.236;-97.118;2023-05-19T17:39:05;31.80;99.90
17774;DHT22;9011;33.236;-97.118;2023-05-19T17:41:34;31.80;99.90
17774;DHT22;9011;33.236;-97.118;2023-05-19T17:44:07;32.00;99.90
17774;DHT22;9011;33.236;-97.118;2023-05-19T17:46:36;31.90;99.90
17774;DHT22;9011;33.236;-97.118;2023-05-19T17:49:05;31.90;99.90
17774;DHT22;9011;33.236;-97.118;2023-05-19T17:51:39;32.00;99.90
17774;DHT22;9011;33.236;-97.118;2023-05-19T17:54:09;32.10;99.90
17774;DHT22;9011;33.236;-97.118;2023-05-19T17:56:40;32.20;99.90
17774;DHT22;9011;33.236;-97.118;2023-05-19T17:59:10;32.30;99.90
17774;DHT22;9011;33.236;-97.118;2023-05-19T18:01:39;32.40;99.90
17774;DHT22;9011;33.236;-97.118;2023-05-19T18:04:09;32.50;99.90
17774;DHT22;9011;33.236;-97.118;2023-05-19T18:06:43;32.50;99.90
17774;DHT22;9011;33.236;-97.118;2023-05-19T18:09:26;32.80;99.90
17774;DHT22;9011;33.236;-97.118;2023-05-19T18:12:06;32.80;99.90
17774;DHT22;9011;33.236;-97.118;2023-05-19T18:14:42;32.80;99.90
17774;DHT22;9011;33.236;-97.118;2023-05-19T18:17:11;32.90;99.90
17774;DHT22;9011;33.236;-97.118;2023-05-19T18:19:40;33.00;99.90
17774;DHT22;9011;33.236;-97.118;2023-05-19T18:22:11;33.00;99.90